Time;durP1;ratioP1;P1;durP2;ratioP2;P2;SDS_P1;SDS_P2;PMS_P1;PMS_P2;Temp;Humidity;BMP_temperature;BMP_pressure;BME280_temperature;BME280_humidity;BME280_pressure;Samples;Min_cycle;Max_cycle;Signal;HPM_P1;HPM_P2
2022/03/25 00:00:58;;;;;;;57.15;26.38;;;;;;;1.17;95.42;100803.94;4883483;29;20117;-81
2022/03/25 00:03:43;;;;;;;50.88;24.67;;;;;;;1.17;97.28;100809.09;4883654;29;20041;-82
2022/03/25 00:06:27;;;;;;;58.00;24.38;;;;;;;1.12;96.47;100808.94;4883543;29;20109;-81
2022/03/25 00:09:12;;;;;;;53.25;24.42;;;;;;;1.06;97.63;100807.91;4883497;29;20053;-81
2022/03/25 00:11:57;;;;;;;57.00;24.50;;;;;;;1.03;96.16;100802.66;4883325;29;20060;-81
2022/03/25 00:14:41;;;;;;;57.60;25.02;;;;;;;0.98;97.01;100810.25;4869628;29;20085;-81
2022/03/25 00:17:25;;;;;;;58.53;26.35;;;;;;;0.96;97.42;100798.16;4883464;29;20056;-82
2022/03/25 00:20:10;;;;;;;58.80;27.40;;;;;;;0.94;98.06;100798.09;4883268;29;20144;-80
2022/03/25 00:22:54;;;;;;;68.90;28.67;;;;;;;0.93;98.08;100796.34;4883497;29;20064;-81
2022/03/25 00:25:39;;;;;;;65.93;29.00;;;;;;;0.89;98.54;100791.94;4883199;29;20077;-81
2022/03/25 00:28:23;;;;;;;66.82;28.23;;;;;;;0.88;100.00;100796.22;4883357;29;20049;-81
2022/03/25 00:31:07;;;;;;;54.10;25.60;;;;;;;0.86;100.00;100802.16;4869313;29;20049;-81
2022/03/25 00:33:55;;;;;;;52.83;23.90;;;;;;;0.82;100.00;100796.03;4882968;29;20109;-81
2022/03/25 00:36:39;;;;;;;56.65;24.65;;;;;;;0.80;100.00;100800.25;4869236;29;20049;-81
2022/03/25 00:39:24;;;;;;;57.67;25.75;;;;;;;0.76;100.00;100795.84;4882380;29;20049;-81
2022/03/25 00:42:13;;;;;;;51.67;23.92;;;;;;;0.76;100.00;100798.44;4882490;29;20045;-81
2022/03/25 00:45:01;;;;;;;54.35;25.15;;;;;;;0.72;100.00;100796.59;4881944;29;20049;-81
2022/03/25 00:47:46;;;;;;;53.92;23.73;;;;;;;0.67;100.00;100790.41;4883053;29;20056;-80
2022/03/25 00:50:30;;;;;;;48.17;22.42;;;;;;;0.70;100.00;100795.66;4882805;29;20049;-81
2022/03/25 00:53:15;;;;;;;52.03;22.63;;;;;;;0.70;100.00;100793.06;4882981;29;20048;-81
2022/03/25 00:56:01;;;;;;;44.40;22.55;;;;;;;0.68;100.00;100790.47;4881973;29;20037;-81
2022/03/25 00:58:46;;;;;;;44.70;21.80;;;;;;;0.66;100.00;100788.66;4882045;29;20085;-80
2022/03/25 01:01:32;;;;;;;42.33;21.65;;;;;;;0.61;100.00;100788.50;4882575;29;20056;-81
2022/03/25 01:04:17;;;;;;;52.65;22.40;;;;;;;0.62;100.00;100786.81;4882530;29;20103;-80
2022/03/25 01:07:03;;;;;;;51.03;24.27;;;;;;;0.59;100.00;100784.16;4881796;29;20049;-80
2022/03/25 01:09:47;;;;;;;46.10;21.25;;;;;;;0.59;100.00;100791.88;4868656;29;20049;-81
2022/03/25 01:12:32;;;;;;;49.53;23.05;;;;;;;0.57;100.00;100790.94;4868137;29;20049;-81
2022/03/25 01:15:16;;;;;;;60.97;24.85;;;;;;;0.53;100.00;100789.13;4882589;29;20065;-81
2022/03/25 01:18:01;;;;;;;52.72;24.50;;;;;;;0.48;100.00;100791.53;4868517;29;20493;-81
2022/03/25 01:20:45;;;;;;;55.47;24.83;;;;;;;0.38;100.00;100776.59;4881729;29;20076;-81
2022/03/25 01:23:30;;;;;;;50.75;23.25;;;;;;;0.40;100.00;100791.31;4881670;29;20056;-81
2022/03/25 01:26:15;;;;;;;48.35;22.33;;;;;;;0.34;100.00;100783.38;4882245;29;20069;-81
2022/03/25 01:28:59;;;;;;;50.63;21.20;;;;;;;0.22;100.00;100770.97;4868516;29;20045;-80
2022/03/25 01:31:43;;;;;;;42.42;20.15;;;;;;;0.28;100.00;100779.72;4881571;29;20048;-81
2022/03/25 01:34:28;;;;;;;44.65;21.13;;;;;;;0.22;100.00;100777.81;4882177;29;20044;-81
2022/03/25 01:37:12;;;;;;;41.83;20.20;;;;;;;0.22;100.00;100780.41;4882310;29;20053;-80
2022/03/25 01:39:56;;;;;;;44.20;19.98;;;;;;;0.20;100.00;100777.78;4882126;29;20060;-81
2022/03/25 01:42:41;;;;;;;43.63;20.20;;;;;;;0.20;100.00;100780.38;4881459;29;20045;-80
2022/03/25 01:45:32;;;;;;;40.38;19.33;;;;;;;0.15;100.00;100778.44;4881767;29;20057;-81
2022/03/25 01:48:17;;;;;;;42.40;18.95;;;;;;;0.16;100.00;100775.03;4882296;29;20053;-80
2022/03/25 01:51:02;;;;;;;47.35;20.85;;;;;;;0.15;100.00;100768.16;4882211;29;20049;-81
2022/03/25 01:53:49;;;;;;;46.30;19.15;;;;;;;0.13;100.00;100778.41;4881951;29;20064;-81
2022/03/25 01:56:34;;;;;;;43.85;19.10;;;;;;;0.12;100.00;100773.19;4881290;29;20100;-81
2022/03/25 01:59:20;;;;;;;39.47;20.27;;;;;;;0.08;100.00;100781.66;4868150;29;20049;-81
2022/03/25 02:02:07;;;;;;;41.15;20.00;;;;;;;0.08;100.00;100785.09;4881816;29;20041;-81
2022/03/25 02:04:51;;;;;;;52.45;21.67;;;;;;;0.02;100.00;100774.59;4881912;29;20402;-81
2022/03/25 02:07:37;;;;;;;42.25;21.25;;;;;;;0.09;100.00;100784.28;4881917;29;20045;-81
2022/03/25 02:10:22;;;;;;;36.72;19.05;;;;;;;0.07;100.00;100785.06;4868050;29;20045;-80
2022/03/25 02:13:10;;;;;;;37.42;19.58;;;;;;;0.03;100.00;100789.22;4868072;29;20041;-80
2022/03/25 02:15:55;;;;;;;40.80;19.17;;;;;;;0.03;100.00;100791.78;4867960;29;20045;-80
2022/03/25 02:18:40;;;;;;;38.65;18.23;;;;;;;0.00;100.00;100789.16;4881068;29;20104;-81
2022/03/25 02:21:28;;;;;;;37.13;18.08;;;;;;;-0.01;100.00;100789.97;4867965;29;20411;-81
2022/03/25 02:24:14;;;;;;;37.88;19.02;;;;;;;-0.03;100.00;100789.91;4884759;29;20135;-81
2022/03/25 02:27:02;;;;;;;34.08;18.30;;;;;;;-0.05;100.00;100788.09;4871423;29;20041;-80
2022/03/25 02:29:48;;;;;;;35.92;16.45;;;;;;;-0.08;100.00;100786.31;4871442;29;20045;-80
2022/03/25 02:32:34;;;;;;;32.58;16.52;;;;;;;-0.06;100.00;100788.94;4871522;29;20048;-80
2022/03/25 02:35:19;;;;;;;35.65;16.60;;;;;;;-0.11;100.00;100786.19;4885376;29;20124;-80
2022/03/25 02:38:05;;;;;;;33.47;16.63;;;;;;;-0.16;100.00;100781.72;4855949;29;20075;-80
2022/03/25 02:40:51;;;;;;;36.30;16.73;;;;;;;-0.15;100.00;100781.78;4885023;29;20387;-81
2022/03/25 02:43:35;;;;;;;39.10;17.25;;;;;;;-0.18;100.00;100783.38;4871255;29;20080;-81
2022/03/25 02:46:23;;;;;;;35.13;16.48;;;;;;;-0.20;100.00;100787.59;4871230;29;20045;-80
2022/03/25 02:49:10;;;;;;;30.33;15.55;;;;;;;-0.30;100.00;100769.25;4871158;29;20123;-81
2022/03/25 02:51:55;;;;;;;27.38;14.27;;;;;;;-0.25;100.00;100780.59;4871114;29;20045;-81
2022/03/25 02:54:39;;;;;;;32.00;15.45;;;;;;;-0.19;100.00;100779.06;4884202;29;20383;-81
2022/03/25 02:57:24;;;;;;;30.92;14.90;;;;;;;-0.22;100.00;100784.97;4884879;29;20324;-81
2022/03/25 03:00:10;;;;;;;33.85;16.65;;;;;;;-0.31;100.00;100770.06;4884104;29;20049;-80
2022/03/25 03:02:55;;;;;;;33.53;17.23;;;;;;;-0.29;100.00;100770.16;4884617;29;20041;-80
2022/03/25 03:05:39;;;;;;;31.08;15.93;;;;;;;-0.32;100.00;100782.91;4884732;29;20068;-80
2022/03/25 03:08:24;;;;;;;30.63;15.73;;;;;;;-0.35;100.00;100781.09;4884647;29;20443;-80
2022/03/25 03:11:08;;;;;;;29.70;15.20;;;;;;;-0.41;100.00;100772.28;4884731;29;20103;-80
2022/03/25 03:13:52;;;;;;;30.50;15.63;;;;;;;-0.41;100.00;100775.75;4884786;29;20053;-80
2022/03/25 03:16:37;;;;;;;23.77;14.57;;;;;;;-0.45;100.00;100771.31;4884743;29;20057;-80
2022/03/25 03:19:23;;;;;;;29.98;15.43;;;;;;;-0.47;100.00;100770.38;4884432;29;20382;-80
2022/03/25 03:22:07;;;;;;;30.48;14.70;;;;;;;-0.48;100.00;100772.06;4884511;29;20049;-80
2022/03/25 03:24:51;;;;;;;28.45;14.13;;;;;;;-0.45;100.00;100775.59;4884265;29;20045;-80
2022/03/25 03:27:36;;;;;;;32.33;16.00;;;;;;;-0.50;100.00;100776.28;4884578;29;20053;-80
2022/03/25 03:30:21;;;;;;;29.20;15.13;;;;;;;-0.52;100.00;100770.22;4884216;29;20057;-80
2022/03/25 03:33:06;;;;;;;28.10;15.35;;;;;;;-0.53;100.00;100776.19;4884233;29;20049;-80
2022/03/25 03:35:50;;;;;;;30.58;14.48;;;;;;;-0.52;100.00;100782.19;4883529;29;20450;-80
2022/03/25 03:38:35;;;;;;;26.52;15.18;;;;;;;-0.59;100.00;100780.22;4884223;29;20052;-80
2022/03/25 03:41:19;;;;;;;31.02;15.63;;;;;;;-0.66;100.00;100768.84;4884113;29;20045;-81
2022/03/25 03:44:05;;;;;;;28.65;14.85;;;;;;;-0.62;100.00;100778.41;4883140;29;20065;-82
2022/03/25 03:46:50;;;;;;;28.23;15.18;;;;;;;-0.61;100.00;100781.91;4884027;29;20078;-81
2022/03/25 03:49:35;;;;;;;31.30;14.85;;;;;;;-0.65;100.00;100783.50;4883985;29;20128;-82
2022/03/25 03:52:20;;;;;;;28.27;14.57;;;;;;;-0.68;100.00;100773.09;4883804;29;20049;-81
2022/03/25 03:55:05;;;;;;;31.85;15.88;;;;;;;-0.70;100.00;100777.28;4883801;29;20045;-81
2022/03/25 03:57:50;;;;;;;31.33;16.73;;;;;;;-0.72;100.00;100771.19;4883742;29;20061;-80
2022/03/25 04:00:34;;;;;;;28.98;14.90;;;;;;;-0.68;100.00;100778.22;4856806;29;20427;-81
2022/03/25 04:03:19;;;;;;;34.45;15.65;;;;;;;-0.70;100.00;100772.16;4883566;29;20045;-80
2022/03/25 04:06:03;;;;;;;29.98;15.57;;;;;;;-0.75;100.00;100764.28;4869747;29;20049;-80
2022/03/25 04:08:49;;;;;;;28.65;14.82;;;;;;;-0.68;100.00;100779.91;4869608;29;20053;-80
2022/03/25 04:11:33;;;;;;;34.65;16.98;;;;;;;-0.72;100.00;100773.78;4883587;29;20378;-81
2022/03/25 04:14:18;;;;;;;31.80;15.88;;;;;;;-0.71;100.00;100779.00;4883372;29;20057;-83
2022/03/25 04:17:02;;;;;;;27.00;14.75;;;;;;;-0.72;100.00;100777.22;4882727;29;20501;-81
2022/03/25 04:19:47;;;;;;;31.40;14.93;;;;;;;-0.74;100.00;100775.44;4869543;29;20044;-81
2022/03/25 04:22:31;;;;;;;27.38;14.20;;;;;;;-0.78;100.00;100766.72;4869441;29;20056;-81
2022/03/25 04:25:15;;;;;;;23.52;13.85;;;;;;;-0.71;100.00;100775.53;4869549;29;20418;-81
2022/03/25 04:28:01;;;;;;;27.27;14.07;;;;;;;-0.73;100.00;100779.75;4883202;29;20403;-81
2022/03/25 04:30:45;;;;;;;27.83;13.68;;;;;;;-0.75;100.00;100782.28;4883186;29;20052;-80
2022/03/25 04:33:31;;;;;;;25.70;13.88;;;;;;;-0.84;100.00;100766.50;4883120;29;20482;-84
2022/03/25 04:36:16;;;;;;;28.55;13.82;;;;;;;-0.83;100.00;100767.38;4882894;29;20045;-82
2022/03/25 04:39:01;;;;;;;26.70;13.80;;;;;;;-0.77;100.00;100781.34;4881426;29;20325;-81
2022/03/25 04:41:45;;;;;;;24.50;14.10;;;;;;;-0.75;100.00;100784.84;4883085;29;20100;-81
2022/03/25 04:44:30;;;;;;;27.23;14.02;;;;;;;-0.75;100.00;100787.44;4882604;29;20053;-82
2022/03/25 04:47:14;;;;;;;30.95;14.70;;;;;;;-0.77;100.00;100780.47;4867758;29;20048;-81
2022/03/25 04:49:59;;;;;;;31.10;14.80;;;;;;;-0.73;100.00;100783.19;4882994;29;20049;-81
2022/03/25 04:52:44;;;;;;;29.45;14.65;;;;;;;-0.70;100.00;100782.44;4882888;29;20045;-81
2022/03/25 04:55:28;;;;;;;24.67;15.32;;;;;;;-0.71;100.00;100783.25;4882433;29;20075;-81
2022/03/25 04:58:14;;;;;;;28.38;15.10;;;;;;;-0.69;100.00;100789.31;4868588;29;20052;-81
2022/03/25 05:00:58;;;;;;;27.70;13.50;;;;;;;-0.64;100.00;100786.94;4882405;29;20083;-81
2022/03/25 05:03:43;;;;;;;30.42;15.57;;;;;;;-0.61;100.00;100787.03;4883061;29;20045;-81
2022/03/25 05:06:27;;;;;;;25.42;14.43;;;;;;;-0.58;100.00;100794.88;4882988;29;20434;-81
2022/03/25 05:09:13;;;;;;;30.40;14.05;;;;;;;-0.50;100.00;100793.44;4882104;29;20044;-85
2022/03/25 05:11:58;;;;;;;26.48;14.18;;;;;;;-0.46;100.00;100795.28;4882923;29;20065;-83
2022/03/25 05:14:43;;;;;;;25.25;13.98;;;;;;;-0.52;100.00;100777.94;4868860;29;20049;-83
2022/03/25 05:17:27;;;;;;;23.83;13.88;;;;;;;-0.39;100.00;100792.13;4883028;29;20067;-85
2022/03/25 05:20:14;;;;;;;27.25;13.85;;;;;;;-0.30;100.00;100799.28;4855841;29;20049;-84
2022/03/25 05:22:58;;;;;;;24.30;14.00;;;;;;;-0.31;100.00;100789.81;4881862;29;20402;-85
2022/03/25 05:25:43;;;;;;;30.20;13.30;;;;;;;-0.18;100.00;100802.28;4882149;29;20049;-86
2022/03/25 05:28:27;;;;;;;28.40;13.80;;;;;;;-0.13;100.00;100810.13;4868935;29;20053;-84
2022/03/25 05:31:12;;;;;;;29.40;13.13;;;;;;;-0.04;100.00;100813.91;4882327;29;20049;-81
2022/03/25 05:33:56;;;;;;;27.17;13.70;;;;;;;-0.02;100.00;100799.38;4881704;29;20048;-85
2022/03/25 05:36:41;;;;;;;31.10;15.45;;;;;;;0.07;100.00;100801.41;4868585;29;20407;-86
2022/03/25 05:39:26;;;;;;;34.92;15.27;;;;;;;0.13;100.00;100786.16;4882330;29;20049;-85
2022/03/25 05:42:10;;;;;;;30.10;15.20;;;;;;;0.77;100.00;100814.78;4868560;29;20408;-84
2022/03/25 05:44:55;;;;;;;33.90;15.57;;;;;;;1.34;100.00;100813.03;4852730;29;20140;-84
2022/03/25 05:47:40;;;;;;;26.92;14.60;;;;;;;2.13;100.00;100810.81;4868364;29;20049;-84
2022/03/25 05:50:25;;;;;;;41.90;16.30;;;;;;;2.82;100.00;100807.25;4882153;29;20048;-84
2022/03/25 05:53:09;;;;;;;51.78;23.70;;;;;;;3.62;100.00;100814.09;4880473;29;20041;-83
2022/03/25 05:55:54;;;;;;;52.47;24.63;;;;;;;4.14;97.71;100815.91;4864936;29;20057;-83
2022/03/25 05:58:39;;;;;;;49.53;24.75;;;;;;;4.80;93.60;100814.34;4870278;29;20052;-83
2022/03/25 06:01:23;;;;;;;41.70;18.90;;;;;;;5.56;90.14;100814.47;4885021;29;20045;-83
2022/03/25 06:04:08;;;;;;;33.85;18.10;;;;;;;6.19;85.88;100804.72;4871141;29;20052;-83
2022/03/25 06:06:53;;;;;;;31.58;18.45;;;;;;;6.75;81.94;100808.59;4871627;29;20044;-82
2022/03/25 06:09:38;;;;;;;37.85;20.13;;;;;;;7.16;77.02;100805.34;4870223;29;20053;-82
2022/03/25 06:12:22;;;;;;;46.38;25.30;;;;;;;7.58;74.68;100812.47;4870867;29;20049;-75
2022/03/25 06:15:08;;;;;;;47.70;25.67;;;;;;;7.78;68.46;100812.53;4870163;29;20045;-75
2022/03/25 06:17:52;;;;;;;51.65;27.45;;;;;;;8.32;69.84;100813.47;4883886;29;20486;-75
2022/03/25 06:20:37;;;;;;;46.97;26.15;;;;;;;8.62;63.95;100814.34;4883774;29;20049;-75
2022/03/25 06:23:21;;;;;;;49.35;27.70;;;;;;;8.87;63.64;100813.44;4883692;29;20354;-76
2022/03/25 06:26:07;;;;;;;56.95;30.63;;;;;;;9.70;63.61;100820.94;4883759;29;20064;-76
2022/03/25 06:28:51;;;;;;;57.60;33.72;;;;;;;9.70;60.43;100817.47;4883407;29;20041;-75
2022/03/25 06:31:36;;;;;;;64.82;36.65;;;;;;;10.52;59.59;100809.03;4884899;29;20053;-75
2022/03/25 06:34:21;;;;;;;63.95;37.17;;;;;;;10.59;54.89;100808.97;4869784;29;20124;-76
2022/03/25 06:37:05;;;;;;;61.13;38.28;;;;;;;10.80;57.45;100806.16;4869729;29;20065;-76
2022/03/25 06:39:50;;;;;;;67.90;38.65;;;;;;;11.10;55.68;100809.34;4883516;29;20069;-76
2022/03/25 06:42:35;;;;;;;75.07;40.03;;;;;;;11.30;54.57;100820.47;4869562;29;20427;-76
2022/03/25 06:45:19;;;;;;;74.68;40.78;;;;;;;11.83;53.07;100813.66;4882534;29;20068;-76
2022/03/25 06:48:04;;;;;;;62.42;37.75;;;;;;;12.29;51.80;100818.25;4884741;29;20056;-76
2022/03/25 06:50:49;;;;;;;60.53;35.70;;;;;;;12.76;50.72;100813.06;4871456;29;20045;-76
2022/03/25 06:53:34;;;;;;;56.67;33.88;;;;;;;13.51;48.36;100814.25;4884815;29;20045;-76
2022/03/25 06:56:19;;;;;;;61.17;34.40;;;;;;;13.60;47.54;100815.81;4885467;29;20046;-75
2022/03/25 06:59:04;;;;;;;60.17;34.80;;;;;;;13.35;47.21;100823.34;4857950;29;20041;-76
2022/03/25 07:01:48;;;;;;;53.50;33.60;;;;;;;13.51;46.60;100814.25;4870954;29;20045;-76
2022/03/25 07:04:34;;;;;;;56.58;32.63;;;;;;;13.03;45.53;100795.88;4885005;29;20419;-76
2022/03/25 07:07:21;;;;;;;47.58;29.15;;;;;;;14.08;45.73;100813.84;4884659;29;20045;-76
2022/03/25 07:10:09;;;;;;;57.25;30.23;;;;;;;14.47;43.74;100809.38;4883631;29;20045;-76
2022/03/25 07:12:54;;;;;;;51.00;29.95;;;;;;;14.72;44.20;100814.03;4885137;29;20049;-76
2022/03/25 07:15:38;;;;;;;50.85;30.58;;;;;;;15.43;43.33;100818.22;4884125;29;20045;-76
2022/03/25 07:18:23;;;;;;;52.38;31.00;;;;;;;15.80;42.66;100815.41;4883824;29;20382;-75
2022/03/25 07:21:07;;;;;;;49.30;30.40;;;;;;;16.21;42.37;100818.50;4871053;29;20053;-76
2022/03/25 07:23:51;;;;;;;57.88;33.58;;;;;;;16.48;40.91;100818.53;4884734;29;20045;-76
2022/03/25 07:26:37;;;;;;;51.85;29.20;;;;;;;16.44;40.67;100827.47;4884732;29;20049;-76
2022/03/25 07:29:21;;;;;;;46.22;28.90;;;;;;;16.60;40.10;100826.03;4870658;29;20041;-76
2022/03/25 07:32:06;;;;;;;45.40;27.08;;;;;;;16.88;39.64;100828.63;4883631;29;20048;-76
2022/03/25 07:34:50;;;;;;;49.33;29.90;;;;;;;16.76;39.23;100824.63;4870600;29;20041;-76
2022/03/25 07:37:36;;;;;;;40.75;25.73;;;;;;;17.14;38.85;100826.84;4883561;29;20340;-77
2022/03/25 07:40:22;;;;;;;43.58;24.48;;;;;;;17.04;37.88;100828.97;4883663;29;20048;-76
2022/03/25 07:43:07;;;;;;;48.63;28.63;;;;;;;16.98;38.00;100831.81;4883393;29;20041;-77
2022/03/25 07:45:51;;;;;;;44.92;26.65;;;;;;;17.50;37.62;100829.91;4870275;29;20056;-76
2022/03/25 07:48:37;;;;;;;43.53;24.98;;;;;;;17.21;36.34;100831.00;4870878;29;20041;-76
2022/03/25 07:51:21;;;;;;;36.50;22.88;;;;;;;17.20;36.39;100831.91;4856986;29;20435;-76
2022/03/25 07:54:06;;;;;;;39.63;24.60;;;;;;;17.74;35.79;100828.09;4857173;29;20041;-76
2022/03/25 07:56:50;;;;;;;34.13;22.13;;;;;;;17.70;35.64;100832.66;4870193;29;20041;-77
2022/03/25 07:59:35;;;;;;;35.60;22.63;;;;;;;18.43;34.28;100834.22;4883858;29;20105;-77
2022/03/25 08:02:19;;;;;;;32.78;23.02;;;;;;;18.55;34.47;100840.78;4883829;29;20045;-77
2022/03/25 08:05:05;;;;;;;35.85;22.00;;;;;;;18.61;34.13;100832.56;4870488;29;20053;-77
2022/03/25 08:07:55;;;;;;;31.23;21.52;;;;;;;18.75;34.33;100837.34;4869914;29;20049;-77
2022/03/25 08:10:39;;;;;;;41.17;23.02;;;;;;;18.86;33.71;100844.84;4883313;29;20049;-77
2022/03/25 08:13:24;;;;;;;33.45;20.92;;;;;;;18.77;33.64;100829.31;4884177;29;20049;-77
2022/03/25 08:16:08;;;;;;;58.42;21.95;;;;;;;19.10;33.80;100832.28;4869804;29;20045;-77
2022/03/25 08:18:52;;;;;;;30.02;20.90;;;;;;;18.82;31.48;100841.44;4883065;29;20458;-77
2022/03/25 08:21:38;;;;;;;34.28;19.45;;;;;;;19.04;33.04;100844.00;4869945;29;20060;-77
2022/03/25 08:30:29;;;;;;;;;;;;;;;18.82;32.06;100841.44;4883707;29;20120;-77
2022/03/25 08:33:14;;;;;;;30.85;19.35;;;;;;;19.25;30.88;100842.22;4883223;29;20264;-77
2022/03/25 08:35:59;;;;;;;34.10;22.02;;;;;;;19.12;31.51;100846.34;4869592;29;20052;-78
2022/03/25 08:38:43;;;;;;;37.97;25.70;;;;;;;19.42;30.58;100848.56;4869918;29;20415;-78
2022/03/25 08:41:28;;;;;;;36.28;25.35;;;;;;;19.49;30.16;100844.69;4883592;29;20120;-78
2022/03/25 08:44:12;;;;;;;31.15;20.00;;;;;;;19.53;30.54;100847.16;4856200;29;20061;-78
2022/03/25 08:46:56;;;;;;;29.02;17.23;;;;;;;19.52;27.56;100841.91;4882872;29;20041;-78
2022/03/25 08:49:41;;;;;;;21.70;14.80;;;;;;;19.35;25.64;100843.53;4882963;29;20044;-78
2022/03/25 08:52:25;;;;;;;23.40;12.95;;;;;;;19.67;25.69;100845.69;4856453;29;20085;-78
2022/03/25 08:55:11;;;;;;;24.48;14.75;;;;;;;19.61;25.33;100831.72;4869659;29;20061;-78
2022/03/25 08:57:57;;;;;;;24.25;14.07;;;;;;;19.27;25.40;100835.06;4883075;29;20053;-78
2022/03/25 09:00:41;;;;;;;20.90;12.18;;;;;;;18.88;24.00;100843.84;4882713;29;20041;-78
2022/03/25 09:03:25;;;;;;;18.08;12.48;;;;;;;19.01;25.61;100843.28;4869548;29;20049;-78
2022/03/25 09:06:11;;;;;;;19.33;11.27;;;;;;;19.12;24.56;100835.72;4869159;29;20041;-78
2022/03/25 09:08:55;;;;;;;19.35;10.32;;;;;;;19.35;24.70;100840.00;4882338;29;20045;-77
2022/03/25 09:11:40;;;;;;;17.67;10.32;;;;;;;19.49;23.82;100834.91;4883180;29;20052;-77
2022/03/25 09:14:24;;;;;;;18.00;10.75;;;;;;;19.73;23.37;100830.31;4882777;29;20045;-77
2022/03/25 09:17:09;;;;;;;14.18;10.27;;;;;;;19.48;24.15;100835.88;4868757;29;20049;-77
2022/03/25 09:19:53;;;;;;;18.10;10.88;;;;;;;19.69;24.26;100842.00;4882685;29;20100;-77
2022/03/25 09:22:38;;;;;;;14.30;10.05;;;;;;;19.60;23.83;100840.63;4882575;29;20049;-76
2022/03/25 09:25:23;;;;;;;13.10;9.57;;;;;;;19.55;23.64;100847.94;4883004;29;20055;-77
2022/03/25 09:28:08;;;;;;;13.52;8.75;;;;;;;19.38;22.86;100843.38;4882155;29;20041;-77
2022/03/25 09:30:53;;;;;;;22.65;10.10;;;;;;;19.30;23.23;100842.00;4882524;29;20117;-77
2022/03/25 09:33:37;;;;;;;17.55;9.52;;;;;;;19.58;23.56;100845.13;4881075;29;20068;-77
2022/03/25 09:36:22;;;;;;;16.17;8.75;;;;;;;19.81;23.58;100844.09;4855546;29;20045;-77
2022/03/25 09:39:06;;;;;;;14.52;10.00;;;;;;;19.77;23.84;100841.66;4881870;29;20430;-77
2022/03/25 09:41:51;;;;;;;13.57;9.18;;;;;;;19.98;23.22;100834.47;4867410;29;20049;-77
2022/03/25 09:44:39;;;;;;;13.98;9.38;;;;;;;20.02;23.68;100846.69;4882248;29;20057;-76
2022/03/25 09:47:23;;;;;;;14.80;9.77;;;;;;;20.19;24.05;100845.88;4882223;29;20056;-77
2022/03/25 09:50:12;;;;;;;15.23;9.68;;;;;;;20.37;23.24;100834.31;4880273;29;20049;-77
2022/03/25 09:52:56;;;;;;;17.40;9.35;;;;;;;20.37;24.06;100842.28;4866980;29;20475;-77
2022/03/25 09:55:42;;;;;;;14.80;9.82;;;;;;;20.42;23.90;100834.09;4866530;29;20041;-77
2022/03/25 09:58:28;;;;;;;12.57;9.38;;;;;;;20.54;23.07;100838.84;4879549;29;20041;-77
2022/03/25 10:01:13;;;;;;;15.30;10.10;;;;;;;19.99;23.21;100846.84;4853364;29;20041;-77
2022/03/25 10:03:57;;;;;;;18.30;12.23;;;;;;;20.26;23.76;100847.28;4880179;29;20045;-77
2022/03/25 10:06:46;;;;;;;23.23;12.00;;;;;;;19.93;23.42;100853.31;4879998;29;20363;-77
2022/03/25 10:09:31;;;;;;;12.10;9.40;;;;;;;19.99;22.70;100846.84;4880847;29;20053;-77
2022/03/25 10:12:23;;;;;;;17.05;11.00;;;;;;;19.53;23.70;100836.53;4868095;29;20053;-77
2022/03/25 10:15:17;;;;;;;15.27;9.43;;;;;;;20.22;24.91;100848.38;4881384;29;20044;-76
2022/03/25 10:18:06;;;;;;;21.75;12.02;;;;;;;20.06;23.98;100841.13;4881634;29;20049;-77
2022/03/25 10:20:52;;;;;;;22.13;12.77;;;;;;;19.66;23.93;100836.88;4880876;29;20363;-77
2022/03/25 10:23:44;;;;;;;19.70;11.73;;;;;;;19.92;24.72;100840.94;4881578;29;20060;-77
2022/03/25 10:26:36;;;;;;;21.67;12.32;;;;;;;20.05;24.16;100833.22;4881545;29;20423;-77
2022/03/25 10:29:22;;;;;;;18.63;11.10;;;;;;;20.21;24.24;100834.19;4880854;29;20454;-76
2022/03/25 10:32:09;;;;;;;19.35;10.65;;;;;;;20.01;23.79;100836.97;4881384;29;20423;-77
2022/03/25 10:35:11;;;;;;;19.38;11.95;;;;;;;20.09;23.60;100834.81;4881671;29;20044;-77
2022/03/25 10:37:58;;;;;;;18.10;11.07;;;;;;;20.36;23.72;100831.75;4867847;29;20057;-77
2022/03/25 10:41:00;;;;;;;17.95;11.85;;;;;;;20.81;24.86;100823.25;4881095;29;20045;-77
2022/03/25 10:43:53;;;;;;;21.40;13.53;;;;;;;20.70;23.56;100826.47;4868693;29;20459;-77
2022/03/25 10:46:46;;;;;;;23.17;11.40;;;;;;;20.30;23.02;100827.56;4884552;29;20281;-77
2022/03/25 10:49:39;;;;;;;23.33;11.13;;;;;;;20.49;23.94;100816.88;4858688;29;20124;-77
2022/03/25 10:52:23;;;;;;;;;;;;;;;20.34;24.24;100828.28;4884650;29;20048;-77
2022/03/25 10:55:20;;;;;;;22.00;12.60;;;;;;;19.95;23.30;100831.94;4871177;29;19939;-77
2022/03/25 10:58:08;;;;;;;19.77;12.75;;;;;;;20.04;24.12;100828.84;4858317;29;20041;-76
2022/03/25 11:00:52;;;;;;;22.35;13.25;;;;;;;20.07;23.12;100826.03;4884571;29;20406;-77
2022/03/25 11:03:37;;;;;;;19.52;12.40;;;;;;;20.08;24.20;100827.75;4884482;29;20431;-77
2022/03/25 11:06:22;;;;;;;19.17;12.82;;;;;;;20.24;24.65;100823.41;4850842;29;20080;-77
2022/03/25 11:09:08;;;;;;;22.38;13.80;;;;;;;20.12;24.08;100813.41;4870829;29;20053;-76
2022/03/25 11:11:55;;;;;;;20.65;13.18;;;;;;;20.16;23.77;100819.44;4870688;29;20064;-76
2022/03/25 11:14:39;;;;;;;22.15;14.55;;;;;;;19.98;24.34;100822.03;4870952;29;20045;-76
2022/03/25 11:17:26;;;;;;;24.10;14.13;;;;;;;19.69;24.48;100815.44;4870569;29;20379;-76
2022/03/25 11:20:12;;;;;;;22.63;13.55;;;;;;;18.77;24.82;100813.38;4857523;29;20045;-76
2022/03/25 11:23:24;;;;;;;20.88;13.98;;;;;;;19.70;24.67;100808.34;4857615;29;20116;-76
2022/03/25 11:26:11;;;;;;;20.95;14.32;;;;;;;19.67;24.03;100804.03;4870352;29;20045;-76
2022/03/25 11:29:01;;;;;;;24.83;14.27;;;;;;;19.68;25.30;100803.09;4884727;29;20048;-77
2022/03/25 11:32:10;;;;;;;20.75;12.57;;;;;;;20.38;24.06;100804.13;4883618;29;20427;-76
2022/03/25 11:34:54;;;;;;;21.75;11.45;;;;;;;20.58;24.11;100804.97;4870500;29;20442;-76
2022/03/25 11:37:39;;;;;;;19.30;13.25;;;;;;;19.83;22.93;100805.03;4870769;29;20434;-76
2022/03/25 11:40:25;;;;;;;22.70;12.65;;;;;;;20.19;24.06;100793.53;4857231;29;20045;-76
2022/03/25 11:43:16;;;;;;;24.35;15.10;;;;;;;20.50;24.02;100792.84;4883700;29;20045;-77
2022/03/25 11:46:00;;;;;;;23.40;13.15;;;;;;;20.68;23.64;100785.75;4884075;29;20041;-76
2022/03/25 11:48:45;;;;;;;22.65;13.27;;;;;;;20.29;23.60;100772.66;4883901;29;20045;-76
2022/03/25 11:51:33;;;;;;;19.83;12.50;;;;;;;20.17;23.98;100789.22;4883850;29;20045;-77
2022/03/25 11:54:40;;;;;;;21.42;13.68;;;;;;;19.65;24.03;100786.44;4883275;29;20049;-76
2022/03/25 11:57:26;;;;;;;20.80;13.07;;;;;;;19.83;24.00;100790.88;4883707;29;20041;-76
2022/03/25 12:00:25;;;;;;;23.33;13.70;;;;;;;19.93;24.75;100773.53;4870337;29;20395;-76
2022/03/25 12:03:12;;;;;;;27.52;14.57;;;;;;;19.38;25.16;100778.78;4882948;29;20053;-76
2022/03/25 12:06:03;;;;;;;21.52;14.27;;;;;;;19.89;25.34;100766.66;4883293;29;20049;-76
2022/03/25 12:09:15;;;;;;;24.30;13.65;;;;;;;20.26;25.00;100768.34;4883653;29;20049;-76
2022/03/25 12:12:00;;;;;;;27.37;15.27;;;;;;;19.98;24.59;100765.34;4869996;29;20045;-76
2022/03/25 12:15:10;;;;;;;23.38;15.02;;;;;;;20.46;24.14;100763.81;4882732;29;20052;-76
2022/03/25 12:18:33;;;;;;;19.92;14.32;;;;;;;20.56;25.03;100766.91;4869866;29;20041;-76
2022/03/25 12:21:21;;;;;;;22.08;13.45;;;;;;;20.40;24.89;100764.13;4882750;29;20049;-76
2022/03/25 12:24:05;;;;;;;19.38;12.95;;;;;;;20.20;23.81;100755.34;4869480;29;20355;-76
2022/03/25 12:27:00;;;;;;;20.85;14.30;;;;;;;20.25;24.95;100755.16;4882447;29;20049;-76
2022/03/25 12:29:53;;;;;;;24.05;13.43;;;;;;;20.40;24.41;100758.81;4869811;29;20045;-76
2022/03/25 12:32:38;;;;;;;21.75;11.05;;;;;;;20.34;24.24;100749.34;4882797;29;20061;-76
2022/03/25 12:35:28;;;;;;;19.30;12.07;;;;;;;20.36;23.76;100744.81;4882352;29;20045;-76
2022/03/25 12:38:24;;;;;;;15.70;11.20;;;;;;;20.62;24.46;100740.84;4856699;29;20080;-76
2022/03/25 12:41:09;;;;;;;31.17;13.50;;;;;;;20.10;24.23;100753.25;4869244;29;20045;-76